sensor_id;sensor_type;location;lat;lon;timestamp;temperature;humidity
4097;DHT22;2062;50.694;7.246;2024-02-21T00:01:23;8.60;62.60
4097;DHT22;2062;50.694;7.246;2024-02-21T00:03:49;8.60;62.50
4097;DHT22;2062;50.694;7.246;2024-02-21T00:06:16;8.60;62.70
4097;DHT22;2062;50.694;7.246;2024-02-21T00:08:45;8.60;62.60
4097;DHT22;2062;50.694;7.246;2024-02-21T00:11:12;8.60;62.60
4097;DHT22;2062;50.694;7.246;2024-02-21T00:13:39;8.60;62.60
4097;DHT22;2062;50.694;7.246;2024-02-21T00:16:06;8.60;62.60
4097;DHT22;2062;50.694;7.246;2024-02-21T00:18:32;8.60;62.70
4097;DHT22;2062;50.694;7.246;2024-02-21T00:20:59;8.60;62.70
4097;DHT22;2062;50.694;7.246;2024-02-21T00:23:27;8.60;62.60
4097;DHT22;2062;50.694;7.246;2024-02-21T00:25:55;8.60;62.60
4097;DHT22;2062;50.694;7.246;2024-02-21T00:28:22;8.60;62.60
4097;DHT22;2062;50.694;7.246;2024-02-21T00:30:49;8.60;62.60
4097;DHT22;2062;50.694;7.246;2024-02-21T00:33:16;8.60;62.70
4097;DHT22;2062;50.694;7.246;2024-02-21T00:35:43;8.60;62.60
4097;DHT22;2062;50.694;7.246;2024-02-21T00:38:10;8.60;62.80
4097;DHT22;2062;50.694;7.246;2024-02-21T00:40:36;8.60;62.60
4097;DHT22;2062;50.694;7.246;2024-02-21T00:43:05;8.60;62.70
4097;DHT22;2062;50.694;7.246;2024-02-21T00:45:31;8.60;62.60
4097;DHT22;2062;50.694;7.246;2024-02-21T00:47:58;8.60;62.70
4097;DHT22;2062;50.694;7.246;2024-02-21T00:50:25;8.60;62.70
4097;DHT22;2062;50.694;7.246;2024-02-21T00:52:52;8.60;62.70
4097;DHT22;2062;50.694;7.246;2024-02-21T00:55:18;8.60;62.60
4097;DHT22;2062;50.694;7.246;2024-02-21T00:57:45;8.60;62.60
4097;DHT22;2062;50.694;7.246;2024-02-21T01:00:14;8.60;63.50
4097;DHT22;2062;50.694;7.246;2024-02-21T01:02:41;8.60;62.70
4097;DHT22;2062;50.694;7.246;2024-02-21T01:05:08;8.60;62.70
4097;DHT22;2062;50.694;7.246;2024-02-21T01:07:35;8.60;62.60
4097;DHT22;2062;50.694;7.246;2024-02-21T01:10:01;8.60;63.60
4097;DHT22;2062;50.694;7.246;2024-02-21T01:12:28;8.60;62.70
4097;DHT22;2062;50.694;7.246;2024-02-21T01:14:55;8.60;62.70
4097;DHT22;2062;50.694;7.246;2024-02-21T01:17:23;8.60;62.60
4097;DHT22;2062;50.694;7.246;2024-02-21T01:19:50;8.60;62.70
4097;DHT22;2062;50.694;7.246;2024-02-21T01:22:16;8.60;62.70
4097;DHT22;2062;50.694;7.246;2024-02-21T01:24:43;8.60;62.70
4097;DHT22;2062;50.694;7.246;2024-02-21T01:27:10;8.60;62.80
4097;DHT22;2062;50.694;7.246;2024-02-21T01:29:37;8.60;62.80
4097;DHT22;2062;50.694;7.246;2024-02-21T01:32:04;8.60;62.80
4097;DHT22;2062;50.694;7.246;2024-02-21T01:34:32;8.60;62.70
4097;DHT22;2062;50.694;7.246;2024-02-21T01:36:59;8.60;62.70
4097;DHT22;2062;50.694;7.246;2024-02-21T01:39:30;8.60;62.80
4097;DHT22;2062;50.694;7.246;2024-02-21T01:41:56;8.60;62.80
4097;DHT22;2062;50.694;7.246;2024-02-21T01:44:23;8.60;62.80
4097;DHT22;2062;50.694;7.246;2024-02-21T01:46:50;8.60;63.60
4097;DHT22;2062;50.694;7.246;2024-02-21T01:49:18;8.60;62.70
4097;DHT22;2062;50.694;7.246;2024-02-21T01:51:46;8.60;62.70
4097;DHT22;2062;50.694;7.246;2024-02-21T01:54:14;8.60;62.80
4097;DHT22;2062;50.694;7.246;2024-02-21T01:56:42;8.60;62.80
4097;DHT22;2062;50.694;7.246;2024-02-21T01:59:09;8.60;62.70
4097;DHT22;2062;50.694;7.246;2024-02-21T02:01:36;8.60;62.80
4097;DHT22;2062;50.694;7.246;2024-02-21T02:04:02;8.60;62.90
4097;DHT22;2062;50.694;7.246;2024-02-21T02:06:33;8.60;62.80
4097;DHT22;2062;50.694;7.246;2024-02-21T02:09:02;8.60;62.90
4097;DHT22;2062;50.694;7.246;2024-02-21T02:11:31;8.60;62.90
4097;DHT22;2062;50.694;7.246;2024-02-21T02:13:58;8.60;62.90
4097;DHT22;2062;50.694;7.246;2024-02-21T02:16:25;8.60;62.90
4097;DHT22;2062;50.694;7.246;2024-02-21T02:18:51;8.60;62.90
4097;DHT22;2062;50.694;7.246;2024-02-21T02:21:26;8.50;62.90
4097;DHT22;2062;50.694;7.246;2024-02-21T02:23:55;8.60;62.80
4097;DHT22;2062;50.694;7.246;2024-02-21T02:26:22;8.50;63.80
4097;DHT22;2062;50.694;7.246;2024-02-21T02:28:48;8.60;62.90
4097;DHT22;2062;50.694;7.246;2024-02-21T02:31:15;8.60;62.90
4097;DHT22;2062;50.694;7.246;2024-02-21T02:33:42;8.60;62.90
4097;DHT22;2062;50.694;7.246;2024-02-21T02:36:10;8.50;63.00
4097;DHT22;2062;50.694;7.246;2024-02-21T02:38:37;8.50;62.90
4097;DHT22;2062;50.694;7.246;2024-02-21T02:41:05;8.50;63.00
4097;DHT22;2062;50.694;7.246;2024-02-21T02:43:32;8.50;62.90
4097;DHT22;2062;50.694;7.246;2024-02-21T02:45:58;8.50;63.00
4097;DHT22;2062;50.694;7.246;2024-02-21T02:48:25;8.50;63.00
4097;DHT22;2062;50.694;7.246;2024-02-21T02:50:52;8.50;63.10
4097;DHT22;2062;50.694;7.246;2024-02-21T02:53:19;8.50;63.00
4097;DHT22;2062;50.694;7.246;2024-02-21T02:55:46;8.50;63.10
4097;DHT22;2062;50.694;7.246;2024-02-21T02:58:14;8.50;63.10
4097;DHT22;2062;50.694;7.246;2024-02-21T03:00:40;8.50;63.00
4097;DHT22;2062;50.694;7.246;2024-02-21T03:03:07;8.50;63.20
4097;DHT22;2062;50.694;7.246;2024-02-21T03:05:34;8.50;64.00
4097;DHT22;2062;50.694;7.246;2024-02-21T03:08:01;8.50;63.20
4097;DHT22;2062;50.694;7.246;2024-02-21T03:10:32;8.50;63.20
4097;DHT22;2062;50.694;7.246;2024-02-21T03:12:59;8.50;63.30
4097;DHT22;2062;50.694;7.246;2024-02-21T03:15:27;8.50;63.30
4097;DHT22;2062;50.694;7.246;2024-02-21T03:17:54;8.50;63.30
4097;DHT22;2062;50.694;7.246;2024-02-21T03:20:20;8.50;63.30
4097;DHT22;2062;50.694;7.246;2024-02-21T03:22:47;8.40;63.20
4097;DHT22;2062;50.694;7.246;2024-02-21T03:25:14;8.50;63.40
4097;DHT22;2062;50.694;7.246;2024-02-21T03:27:41;8.50;63.40
4097;DHT22;2062;50.694;7.246;2024-02-21T03:30:09;8.50;63.30
4097;DHT22;2062;50.694;7.246;2024-02-21T03:32:37;8.40;63.30
4097;DHT22;2062;50.694;7.246;2024-02-21T03:35:05;8.40;63.30
4097;DHT22;2062;50.694;7.246;2024-02-21T03:37:31;8.40;63.30
4097;DHT22;2062;50.694;7.246;2024-02-21T03:39:58;8.40;63.40
4097;DHT22;2062;50.694;7.246;2024-02-21T03:42:25;8.40;63.50
4097;DHT22;2062;50.694;7.246;2024-02-21T03:44:54;8.40;63.40
4097;DHT22;2062;50.694;7.246;2024-02-21T03:47:21;8.40;63.50
4097;DHT22;2062;50.694;7.246;2024-02-21T03:49:49;8.40;63.50
4097;DHT22;2062;50.694;7.246;2024-02-21T03:52:16;8.30;63.50
4097;DHT22;2062;50.694;7.246;2024-02-21T03:54:43;8.40;63.50
4097;DHT22;2062;50.694;7.246;2024-02-21T03:57:10;8.40;63.50
4097;DHT22;2062;50.694;7.246;2024-02-21T03:59:36;8.40;63.50
4097;DHT22;2062;50.694;7.246;2024-02-21T04:02:04;8.40;63.50
4097;DHT22;2062;50.694;7.246;2024-02-21T04:04:34;8.40;63.50
4097;DHT22;2062;50.694;7.246;2024-02-21T04:07:02;8.40;63.60
4097;DHT22;2062;50.694;7.246;2024-02-21T04:09:31;8.30;63.50
4097;DHT22;2062;50.694;7.246;2024-02-21T04:11:59;8.30;63.60
4097;DHT22;2062;50.694;7.246;2024-02-21T04:14:26;8.30;63.60
4097;DHT22;2062;50.694;7.246;2024-02-21T04:16:52;8.30;63.60
4097;DHT22;2062;50.694;7.246;2024-02-21T04:19:19;8.30;63.60
4097;DHT22;2062;50.694;7.246;2024-02-21T04:21:46;8.30;63.70
4097;DHT22;2062;50.694;7.246;2024-02-21T04:24:14;8.30;63.70
4097;DHT22;2062;50.694;7.246;2024-02-21T04:26:41;8.30;63.70
4097;DHT22;2062;50.694;7.246;2024-02-21T04:29:09;8.30;63.80
4097;DHT22;2062;50.694;7.246;2024-02-21T04:31:35;8.30;63.80
4097;DHT22;2062;50.694;7.246;2024-02-21T04:34:02;8.30;63.90
4097;DHT22;2062;50.694;7.246;2024-02-21T04:36:29;8.20;63.70
4097;DHT22;2062;50.694;7.246;2024-02-21T04:38:56;8.20;63.80
4097;DHT22;2062;50.694;7.246;2024-02-21T04:41:24;8.30;63.90
4097;DHT22;2062;50.694;7.246;2024-02-21T04:43:50;8.20;63.70
4097;DHT22;2062;50.694;7.246;2024-02-21T04:46:17;8.20;63.80
4097;DHT22;2062;50.694;7.246;2024-02-21T04:48:44;8.30;63.90
4097;DHT22;2062;50.694;7.246;2024-02-21T04:51:12;8.20;63.90
4097;DHT22;2062;50.694;7.246;2024-02-21T04:53:39;8.30;64.00
4097;DHT22;2062;50.694;7.246;2024-02-21T04:56:06;8.30;64.00
4097;DHT22;2062;50.694;7.246;2024-02-21T04:58:37;8.30;64.00
4097;DHT22;2062;50.694;7.246;2024-02-21T05:01:04;8.30;64.00
4097;DHT22;2062;50.694;7.246;2024-02-21T05:03:31;8.30;64.00
4097;DHT22;2062;50.694;7.246;2024-02-21T05:05:59;8.30;64.00
4097;DHT22;2062;50.694;7.246;2024-02-21T05:08:25;8.30;64.00
4097;DHT22;2062;50.694;7.246;2024-02-21T05:10:52;8.30;64.00
4097;DHT22;2062;50.694;7.246;2024-02-21T05:13:19;8.30;64.00
4097;DHT22;2062;50.694;7.246;2024-02-21T05:15:47;8.30;64.00
4097;DHT22;2062;50.694;7.246;2024-02-21T05:18:14;8.30;64.10
4097;DHT22;2062;50.694;7.246;2024-02-21T05:20:41;8.30;64.00
4097;DHT22;2062;50.694;7.246;2024-02-21T05:23:07;8.30;63.90
4097;DHT22;2062;50.694;7.246;2024-02-21T05:25:34;8.30;64.00
4097;DHT22;2062;50.694;7.246;2024-02-21T05:28:01;8.30;63.90
4097;DHT22;2062;50.694;7.246;2024-02-21T05:30:28;8.30;63.90
4097;DHT22;2062;50.694;7.246;2024-02-21T05:32:56;8.30;63.90
4097;DHT22;2062;50.694;7.246;2024-02-21T05:35:26;8.30;64.00
4097;DHT22;2062;50.694;7.246;2024-02-21T05:37:53;8.30;64.80
4097;DHT22;2062;50.694;7.246;2024-02-21T05:40:20;8.30;64.00
4097;DHT22;2062;50.694;7.246;2024-02-21T05:42:46;8.30;64.00
4097;DHT22;2062;50.694;7.246;2024-02-21T05:45:13;8.30;64.00
4097;DHT22;2062;50.694;7.246;2024-02-21T05:47:41;8.30;63.90
4097;DHT22;2062;50.694;7.246;2024-02-21T05:50:10;8.30;64.00
4097;DHT22;2062;50.694;7.246;2024-02-21T05:52:36;8.30;63.90
4097;DHT22;2062;50.694;7.246;2024-02-21T05:55:04;8.30;64.00
4097;DHT22;2062;50.694;7.246;2024-02-21T05:57:32;8.30;63.90
4097;DHT22;2062;50.694;7.246;2024-02-21T05:59:59;8.30;63.90
4097;DHT22;2062;50.694;7.246;2024-02-21T06:02:27;8.30;64.00
4097;DHT22;2062;50.694;7.246;2024-02-21T06:04:54;8.30;63.90
4097;DHT22;2062;50.694;7.246;2024-02-21T06:07:22;8.30;63.90
4097;DHT22;2062;50.694;7.246;2024-02-21T06:09:49;8.30;63.90
4097;DHT22;2062;50.694;7.246;2024-02-21T06:12:16;8.30;63.90
4097;DHT22;2062;50.694;7.246;2024-02-21T06:14:42;8.30;63.90
4097;DHT22;2062;50.694;7.246;2024-02-21T06:17:09;8.20;63.80
4097;DHT22;2062;50.694;7.246;2024-02-21T06:19:36;8.30;63.90
4097;DHT22;2062;50.694;7.246;2024-02-21T06:22:03;8.20;64.70
4097;DHT22;2062;50.694;7.246;2024-02-21T06:24:34;8.30;63.90
4097;DHT22;2062;50.694;7.246;2024-02-21T06:27:02;8.30;63.90
4097;DHT22;2062;50.694;7.246;2024-02-21T06:29:28;8.20;63.80
4097;DHT22;2062;50.694;7.246;2024-02-21T06:31:55;8.20;63.80
4097;DHT22;2062;50.694;7.246;2024-02-21T06:34:22;8.20;63.90
4097;DHT22;2062;50.694;7.246;2024-02-21T06:36:49;8.20;63.90
4097;DHT22;2062;50.694;7.246;2024-02-21T06:39:16;8.20;63.90
4097;DHT22;2062;50.694;7.246;2024-02-21T06:41:44;8.20;63.90
4097;DHT22;2062;50.694;7.246;2024-02-21T06:44:12;8.30;64.00
4097;DHT22;2062;50.694;7.246;2024-02-21T06:46:39;8.30;64.00
4097;DHT22;2062;50.694;7.246;2024-02-21T06:49:05;8.20;64.00
4097;DHT22;2062;50.694;7.246;2024-02-21T06:51:32;8.20;63.90
4097;DHT22;2062;50.694;7.246;2024-02-21T06:54:00;8.20;64.00
4097;DHT22;2062;50.694;7.246;2024-02-21T06:56:27;8.30;64.10
4097;DHT22;2062;50.694;7.246;2024-02-21T06:58:56;8.20;64.10
4097;DHT22;2062;50.694;7.246;2024-02-21T07:01:22;8.20;64.00
4097;DHT22;2062;50.694;7.246;2024-02-21T07:03:49;8.30;64.10
4097;DHT22;2062;50.694;7.246;2024-02-21T07:06:16;8.20;64.00
4097;DHT22;2062;50.694;7.246;2024-02-21T07:08:43;8.20;63.90
4097;DHT22;2062;50.694;7.246;2024-02-21T07:11:10;8.20;64.00
4097;DHT22;2062;50.694;7.246;2024-02-21T07:13:37;8.20;64.00
4097;DHT22;2062;50.694;7.246;2024-02-21T07:16:06;8.20;64.00
4097;DHT22;2062;50.694;7.246;2024-02-21T07:18:33;8.20;64.00
4097;DHT22;2062;50.694;7.246;2024-02-21T07:20:59;8.20;64.00
4097;DHT22;2062;50.694;7.246;2024-02-21T07:23:26;8.30;64.10
4097;DHT22;2062;50.694;7.246;2024-02-21T07:25:53;8.20;63.90
4097;DHT22;2062;50.694;7.246;2024-02-21T07:28:20;8.30;64.10
4097;DHT22;2062;50.694;7.246;2024-02-21T07:30:46;8.30;64.10
4097;DHT22;2062;50.694;7.246;2024-02-21T07:33:15;8.30;64.10
4097;DHT22;2062;50.694;7.246;2024-02-21T07:35:42;8.30;64.10
4097;DHT22;2062;50.694;7.246;2024-02-21T07:38:10;8.30;64.00
4097;DHT22;2062;50.694;7.246;2024-02-21T07:40:38;8.30;64.10
4097;DHT22;2062;50.694;7.246;2024-02-21T07:43:04;8.30;64.10
4097;DHT22;2062;50.694;7.246;2024-02-21T07:45:31;8.30;64.10
4097;DHT22;2062;50.694;7.246;2024-02-21T07:47:58;8.30;63.90
4097;DHT22;2062;50.694;7.246;2024-02-21T07:50:26;8.30;63.90
4097;DHT22;2062;50.694;7.246;2024-02-21T07:52:53;8.30;63.90
4097;DHT22;2062;50.694;7.246;2024-02-21T07:55:20;8.30;64.10
4097;DHT22;2062;50.694;7.246;2024-02-21T07:57:46;8.40;64.00
4097;DHT22;2062;50.694;7.246;2024-02-21T08:00:14;8.30;64.10
4097;DHT22;2062;50.694;7.246;2024-02-21T08:02:45;8.40;64.10
4097;DHT22;2062;50.694;7.246;2024-02-21T08:05:12;8.40;64.10
4097;DHT22;2062;50.694;7.246;2024-02-21T08:07:40;8.40;64.10
4097;DHT22;2062;50.694;7.246;2024-02-21T08:10:07;8.40;64.10
4097;DHT22;2062;50.694;7.246;2024-02-21T08:12:34;8.40;64.10
4097;DHT22;2062;50.694;7.246;2024-02-21T08:15:02;8.50;64.10
4097;DHT22;2062;50.694;7.246;2024-02-21T08:17:29;8.50;64.20
4097;DHT22;2062;50.694;7.246;2024-02-21T08:19:56;8.50;64.30
4097;DHT22;2062;50.694;7.246;2024-02-21T08:22:23;8.50;64.40
4097;DHT22;2062;50.694;7.246;2024-02-21T08:24:51;8.50;64.40
4097;DHT22;2062;50.694;7.246;2024-02-21T08:27:18;8.50;64.20
4097;DHT22;2062;50.694;7.246;2024-02-21T08:29:45;8.60;64.40
4097;DHT22;2062;50.694;7.246;2024-02-21T08:32:12;8.60;64.40
4097;DHT22;2062;50.694;7.246;2024-02-21T08:34:39;8.70;64.60
4097;DHT22;2062;50.694;7.246;2024-02-21T08:37:05;8.60;64.50
4097;DHT22;2062;50.694;7.246;2024-02-21T08:39:33;8.70;64.50
4097;DHT22;2062;50.694;7.246;2024-02-21T08:42:01;8.70;64.30
4097;DHT22;2062;50.694;7.246;2024-02-21T08:44:28;8.70;64.30
4097;DHT22;2062;50.694;7.246;2024-02-21T08:46:55;8.80;64.50
4097;DHT22;2062;50.694;7.246;2024-02-21T08:49:22;8.80;64.50
4097;DHT22;2062;50.694;7.246;2024-02-21T08:51:49;8.90;64.50
4097;DHT22;2062;50.694;7.246;2024-02-21T08:54:15;8.90;64.60
4097;DHT22;2062;50.694;7.246;2024-02-21T08:56:42;9.00;64.60
4097;DHT22;2062;50.694;7.246;2024-02-21T08:59:10;9.00;64.60
4097;DHT22;2062;50.694;7.246;2024-02-21T09:01:37;9.00;64.50
4097;DHT22;2062;50.694;7.246;2024-02-21T09:04:04;9.10;64.50
4097;DHT22;2062;50.694;7.246;2024-02-21T09:06:31;9.10;64.40
4097;DHT22;2062;50.694;7.246;2024-02-21T09:08:59;9.20;64.50
4097;DHT22;2062;50.694;7.246;2024-02-21T09:11:25;9.20;64.30
4097;DHT22;2062;50.694;7.246;2024-02-21T09:13:53;9.20;64.40
4097;DHT22;2062;50.694;7.246;2024-02-21T09:16:21;9.30;64.40
4097;DHT22;2062;50.694;7.246;2024-02-21T09:18:48;9.40;64.60
4097;DHT22;2062;50.694;7.246;2024-02-21T09:21:15;9.40;64.50
4097;DHT22;2062;50.694;7.246;2024-02-21T09:23:42;9.40;64.30
4097;DHT22;2062;50.694;7.246;2024-02-21T09:26:08;9.50;64.50
4097;DHT22;2062;50.694;7.246;2024-02-21T09:28:39;9.60;64.50
4097;DHT22;2062;50.694;7.246;2024-02-21T09:31:05;9.70;64.70
4097;DHT22;2062;50.694;7.246;2024-02-21T09:33:34;9.80;64.70
4097;DHT22;2062;50.694;7.246;2024-02-21T09:36:01;9.90;64.70
4097;DHT22;2062;50.694;7.246;2024-02-21T09:38:28;10.00;64.80
4097;DHT22;2062;50.694;7.246;2024-02-21T09:40:59;10.10;64.80
4097;DHT22;2062;50.694;7.246;2024-02-21T09:43:26;10.20;64.70
4097;DHT22;2062;50.694;7.246;2024-02-21T09:45:55;10.30;65.40
4097;DHT22;2062;50.694;7.246;2024-02-21T09:48:41;10.40;64.00
4097;DHT22;2062;50.694;7.246;2024-02-21T09:51:10;10.50;64.10
4097;DHT22;2062;50.694;7.246;2024-02-21T09:53:38;10.50;63.60
4097;DHT22;2062;50.694;7.246;2024-02-21T09:56:08;10.50;63.50
4097;DHT22;2062;50.694;7.246;2024-02-21T09:58:35;10.60;63.50
4097;DHT22;2062;50.694;7.246;2024-02-21T10:01:02;10.70;63.60
4097;DHT22;2062;50.694;7.246;2024-02-21T10:03:32;10.70;63.50
4097;DHT22;2062;50.694;7.246;2024-02-21T10:06:00;10.80;63.20
4097;DHT22;2062;50.694;7.246;2024-02-21T10:08:28;10.90;63.40
4097;DHT22;2062;50.694;7.246;2024-02-21T10:10:54;10.90;63.40
4097;DHT22;2062;50.694;7.246;2024-02-21T10:13:25;10.90;63.30
4097;DHT22;2062;50.694;7.246;2024-02-21T10:16:03;11.00;63.20
4097;DHT22;2062;50.694;7.246;2024-02-21T10:18:30;11.10;62.80
4097;DHT22;2062;50.694;7.246;2024-02-21T10:21:02;11.10;62.40
4097;DHT22;2062;50.694;7.246;2024-02-21T10:23:40;11.20;61.70
4097;DHT22;2062;50.694;7.246;2024-02-21T10:26:07;11.20;61.50
4097;DHT22;2062;50.694;7.246;2024-02-21T10:28:34;11.30;61.20
4097;DHT22;2062;50.694;7.246;2024-02-21T10:31:01;11.30;61.30
4097;DHT22;2062;50.694;7.246;2024-02-21T10:33:28;11.30;61.50
4097;DHT22;2062;50.694;7.246;2024-02-21T10:36:07;11.40;61.30
4097;DHT22;2062;50.694;7.246;2024-02-21T10:38:36;11.40;61.10
4097;DHT22;2062;50.694;7.246;2024-02-21T10:41:04;11.50;61.20
4097;DHT22;2062;50.694;7.246;2024-02-21T10:43:37;11.50;61.30
4097;DHT22;2062;50.694;7.246;2024-02-21T10:46:06;11.50;61.10
4097;DHT22;2062;50.694;7.246;2024-02-21T10:48:41;11.60;60.80
4097;DHT22;2062;50.694;7.246;2024-02-21T10:51:15;11.70;60.80
4097;DHT22;2062;50.694;7.246;2024-02-21T10:53:45;11.70;60.50
4097;DHT22;2062;50.694;7.246;2024-02-21T10:56:21;11.80;59.50
4097;DHT22;2062;50.694;7.246;2024-02-21T10:58:49;11.80;60.40
4097;DHT22;2062;50.694;7.246;2024-02-21T11:01:16;11.90;60.80
4097;DHT22;2062;50.694;7.246;2024-02-21T11:03:45;11.90;60.90
4097;DHT22;2062;50.694;7.246;2024-02-21T11:06:14;11.90;60.60
4097;DHT22;2062;50.694;7.246;2024-02-21T11:08:41;12.00;60.30
4097;DHT22;2062;50.694;7.246;2024-02-21T11:11:08;12.10;60.20
4097;DHT22;2062;50.694;7.246;2024-02-21T11:13:37;12.10;60.00
4097;DHT22;2062;50.694;7.246;2024-02-21T11:16:08;12.20;60.10
4097;DHT22;2062;50.694;7.246;2024-02-21T11:18:36;12.20;60.10
4097;DHT22;2062;50.694;7.246;2024-02-21T11:21:03;12.30;60.00
4097;DHT22;2062;50.694;7.246;2024-02-21T11:23:32;12.30;60.00
4097;DHT22;2062;50.694;7.246;2024-02-21T11:26:06;12.40;59.80
4097;DHT22;2062;50.694;7.246;2024-02-21T11:28:33;12.40;59.60
4097;DHT22;2062;50.694;7.246;2024-02-21T11:31:08;12.50;59.50
4097;DHT22;2062;50.694;7.246;2024-02-21T11:33:35;12.50;59.50
4097;DHT22;2062;50.694;7.246;2024-02-21T11:36:02;12.60;59.60
4097;DHT22;2062;50.694;7.246;2024-02-21T11:38:30;12.60;59.50
4097;DHT22;2062;50.694;7.246;2024-02-21T11:40:58;12.70;59.20
4097;DHT22;2062;50.694;7.246;2024-02-21T11:43:24;12.70;59.20
4097;DHT22;2062;50.694;7.246;2024-02-21T11:45:58;12.80;59.00
4097;DHT22;2062;50.694;7.246;2024-02-21T11:48:25;12.80;58.90
4097;DHT22;2062;50.694;7.246;2024-02-21T11:50:53;12.90;58.70
4097;DHT22;2062;50.694;7.246;2024-02-21T11:53:21;12.90;58.70
4097;DHT22;2062;50.694;7.246;2024-02-21T11:55:48;12.90;58.70
4097;DHT22;2062;50.694;7.246;2024-02-21T11:58:16;13.00;58.50
4097;DHT22;2062;50.694;7.246;2024-02-21T12:00:43;13.00;58.50
4097;DHT22;2062;50.694;7.246;2024-02-21T12:03:10;13.00;58.00
4097;DHT22;2062;50.694;7.246;2024-02-21T12:05:36;13.00;57.90
4097;DHT22;2062;50.694;7.246;2024-02-21T12:08:04;13.10;58.00
4097;DHT22;2062;50.694;7.246;2024-02-21T12:10:31;13.10;57.90
4097;DHT22;2062;50.694;7.246;2024-02-21T12:13:05;13.10;57.90
4097;DHT22;2062;50.694;7.246;2024-02-21T12:15:34;13.10;57.30
4097;DHT22;2062;50.694;7.246;2024-02-21T12:18:01;13.10;55.60
4097;DHT22;2062;50.694;7.246;2024-02-21T12:20:28;13.10;56.80
4097;DHT22;2062;50.694;7.246;2024-02-21T12:22:55;13.10;56.80
4097;DHT22;2062;50.694;7.246;2024-02-21T12:25:24;13.10;56.50
4097;DHT22;2062;50.694;7.246;2024-02-21T12:27:52;13.10;56.40
4097;DHT22;2062;50.694;7.246;2024-02-21T12:30:19;13.00;56.50
4097;DHT22;2062;50.694;7.246;2024-02-21T12:32:47;13.00;56.10
4097;DHT22;2062;50.694;7.246;2024-02-21T12:35:15;13.00;56.20
4097;DHT22;2062;50.694;7.246;2024-02-21T12:37:42;13.00;55.80
4097;DHT22;2062;50.694;7.246;2024-02-21T12:40:11;13.00;55.60
4097;DHT22;2062;50.694;7.246;2024-02-21T12:42:38;12.90;55.70
4097;DHT22;2062;50.694;7.246;2024-02-21T12:45:06;12.90;55.10
4097;DHT22;2062;50.694;7.246;2024-02-21T12:47:33;12.90;55.30
4097;DHT22;2062;50.694;7.246;2024-02-21T12:50:01;12.80;55.50
4097;DHT22;2062;50.694;7.246;2024-02-21T12:52:29;12.80;55.40
4097;DHT22;2062;50.694;7.246;2024-02-21T12:54:56;12.80;55.60
4097;DHT22;2062;50.694;7.246;2024-02-21T12:57:24;12.80;55.80
4097;DHT22;2062;50.694;7.246;2024-02-21T12:59:51;12.70;55.60
4097;DHT22;2062;50.694;7.246;2024-02-21T13:02:18;12.70;55.40
4097;DHT22;2062;50.694;7.246;2024-02-21T13:04:45;12.70;55.50
4097;DHT22;2062;50.694;7.246;2024-02-21T13:07:13;12.70;55.40
4097;DHT22;2062;50.694;7.246;2024-02-21T13:09:40;12.60;54.80
4097;DHT22;2062;50.694;7.246;2024-02-21T13:12:07;12.60;54.80
4097;DHT22;2062;50.694;7.246;2024-02-21T13:14:34;12.60;54.90
4097;DHT22;2062;50.694;7.246;2024-02-21T13:17:04;12.60;55.10
4097;DHT22;2062;50.694;7.246;2024-02-21T13:19:31;12.60;55.00
4097;DHT22;2062;50.694;7.246;2024-02-21T13:21:58;12.60;54.80
4097;DHT22;2062;50.694;7.246;2024-02-21T13:24:26;12.40;55.00
4097;DHT22;2062;50.694;7.246;2024-02-21T13:26:53;12.50;55.00
4097;DHT22;2062;50.694;7.246;2024-02-21T13:29:19;12.50;55.10
4097;DHT22;2062;50.694;7.246;2024-02-21T13:31:47;12.50;54.80
4097;DHT22;2062;50.694;7.246;2024-02-21T13:34:13;12.50;54.80
4097;DHT22;2062;50.694;7.246;2024-02-21T13:36:40;12.50;54.20
4097;DHT22;2062;50.694;7.246;2024-02-21T13:39:07;12.50;54.70
4097;DHT22;2062;50.694;7.246;2024-02-21T13:41:39;12.40;54.10
4097;DHT22;2062;50.694;7.246;2024-02-21T13:44:07;12.40;54.30
4097;DHT22;2062;50.694;7.246;2024-02-21T13:46:34;12.40;54.10
4097;DHT22;2062;50.694;7.246;2024-02-21T13:49:03;12.40;53.60
4097;DHT22;2062;50.694;7.246;2024-02-21T13:51:32;12.30;53.70
4097;DHT22;2062;50.694;7.246;2024-02-21T13:53:59;12.30;53.80
4097;DHT22;2062;50.694;7.246;2024-02-21T13:56:26;12.20;53.50
4097;DHT22;2062;50.694;7.246;2024-02-21T13:58:54;12.20;53.60
4097;DHT22;2062;50.694;7.246;2024-02-21T14:01:21;12.10;53.60
4097;DHT22;2062;50.694;7.246;2024-02-21T14:03:47;12.10;53.50
4097;DHT22;2062;50.694;7.246;2024-02-21T14:06:14;11.90;53.20
4097;DHT22;2062;50.694;7.246;2024-02-21T14:08:41;12.00;53.10
4097;DHT22;2062;50.694;7.246;2024-02-21T14:11:08;12.00;53.40
4097;DHT22;2062;50.694;7.246;2024-02-21T14:13:35;11.90;52.80
4097;DHT22;2062;50.694;7.246;2024-02-21T14:16:09;11.90;53.10
4097;DHT22;2062;50.694;7.246;2024-02-21T14:18:36;11.80;52.90
4097;DHT22;2062;50.694;7.246;2024-02-21T14:21:04;11.70;52.80
4097;DHT22;2062;50.694;7.246;2024-02-21T14:23:30;11.70;53.00
4097;DHT22;2062;50.694;7.246;2024-02-21T14:25:59;11.70;53.10
4097;DHT22;2062;50.694;7.246;2024-02-21T14:28:25;11.70;52.90
4097;DHT22;2062;50.694;7.246;2024-02-21T14:30:52;11.60;52.70
4097;DHT22;2062;50.694;7.246;2024-02-21T14:33:24;11.60;52.60
4097;DHT22;2062;50.694;7.246;2024-02-21T14:35:50;11.50;53.00
4097;DHT22;2062;50.694;7.246;2024-02-21T14:38:18;11.50;52.90
4097;DHT22;2062;50.694;7.246;2024-02-21T14:40:45;11.40;52.50
4097;DHT22;2062;50.694;7.246;2024-02-21T14:43:12;11.40;52.90
4097;DHT22;2062;50.694;7.246;2024-02-21T14:45:38;11.40;53.00
4097;DHT22;2062;50.694;7.246;2024-02-21T14:48:07;11.30;53.30
4097;DHT22;2062;50.694;7.246;2024-02-21T14:50:35;11.40;53.00
4097;DHT22;2062;50.694;7.246;2024-02-21T14:53:01;11.30;52.80
4097;DHT22;2062;50.694;7.246;2024-02-21T14:55:28;11.30;52.70
4097;DHT22;2062;50.694;7.246;2024-02-21T14:57:55;11.30;52.70
4097;DHT22;2062;50.694;7.246;2024-02-21T15:00:22;11.30;52.40
4097;DHT22;2062;50.694;7.246;2024-02-21T15:02:55;11.30;52.60
4097;DHT22;2062;50.694;7.246;2024-02-21T15:05:22;11.20;52.60
4097;DHT22;2062;50.694;7.246;2024-02-21T15:07:50;11.20;52.90
4097;DHT22;2062;50.694;7.246;2024-02-21T15:10:17;11.20;53.00
4097;DHT22;2062;50.694;7.246;2024-02-21T15:12:44;11.20;53.00
4097;DHT22;2062;50.694;7.246;2024-02-21T15:15:11;11.20;53.40
4097;DHT22;2062;50.694;7.246;2024-02-21T15:17:38;11.20;52.90
4097;DHT22;2062;50.694;7.246;2024-02-21T15:20:06;11.20;53.20
4097;DHT22;2062;50.694;7.246;2024-02-21T15:22:33;11.20;52.00
4097;DHT22;2062;50.694;7.246;2024-02-21T15:25:02;11.10;52.60
4097;DHT22;2062;50.694;7.246;2024-02-21T15:27:31;11.20;53.00
4097;DHT22;2062;50.694;7.246;2024-02-21T15:29:58;11.10;52.90
4097;DHT22;2062;50.694;7.246;2024-02-21T15:32:25;11.10;52.70
4097;DHT22;2062;50.694;7.246;2024-02-21T15:34:52;11.10;52.10
4097;DHT22;2062;50.694;7.246;2024-02-21T15:37:19;11.10;52.30
4097;DHT22;2062;50.694;7.246;2024-02-21T15:39:46;11.10;52.40
4097;DHT22;2062;50.694;7.246;2024-02-21T15:42:14;11.00;52.30
4097;DHT22;2062;50.694;7.246;2024-02-21T15:44:41;11.00;51.70
4097;DHT22;2062;50.694;7.246;2024-02-21T15:47:08;11.10;52.30
4097;DHT22;2062;50.694;7.246;2024-02-21T15:49:34;11.00;52.10
4097;DHT22;2062;50.694;7.246;2024-02-21T15:52:02;11.00;51.60
4097;DHT22;2062;50.694;7.246;2024-02-21T15:54:29;10.90;52.00
4097;DHT22;2062;50.694;7.246;2024-02-21T15:56:56;10.90;51.80
4097;DHT22;2062;50.694;7.246;2024-02-21T15:59:24;10.90;52.10
4097;DHT22;2062;50.694;7.246;2024-02-21T16:01:50;10.80;51.90
4097;DHT22;2062;50.694;7.246;2024-02-21T16:04:17;10.90;52.10
4097;DHT22;2062;50.694;7.246;2024-02-21T16:06:44;10.80;51.80
4097;DHT22;2062;50.694;7.246;2024-02-21T16:09:16;10.80;51.70
4097;DHT22;2062;50.694;7.246;2024-02-21T16:11:43;10.80;51.90
4097;DHT22;2062;50.694;7.246;2024-02-21T16:14:11;10.70;51.50